Time;durP1;ratioP1;P1;durP2;ratioP2;P2;SDS_P1;SDS_P2;PMS_P1;PMS_P2;Temp;Humidity;BMP_temperature;BMP_pressure;BME280_temperature;BME280_humidity;BME280_pressure;Samples;Min_cycle;Max_cycle;Signal;HPM_P1;HPM_P2
2022/01/21 00:03:29;;;;;;;13.93;2.25;;;0.40;99.90;;;;;;12398442;28;20221;-85
2022/01/21 00:09:32;;;;;;;12.23;1.70;;;0.30;99.90;;;;;;12454720;28;20049;-84
2022/01/21 00:15:33;;;;;;;13.13;2.20;;;0.30;99.90;;;;;;12427919;28;20046;-84
2022/01/21 00:34:17;;;;;;;14.82;2.65;;;0.20;99.90;;;;;;12450338;28;20054;-85
2022/01/21 00:40:22;;;;;;;12.75;2.38;;;0.30;99.90;;;;;;12426738;28;20138;-84
2022/01/21 00:46:24;;;;;;;14.15;1.90;;;0.20;99.90;;;;;;12395028;28;20061;-85
2022/01/21 00:52:26;;;;;;;15.35;2.42;;;0.20;99.90;;;;;;12412112;28;20054;-84
2022/01/21 00:58:28;;;;;;;15.95;2.45;;;0.10;99.90;;;;;;12415073;28;20524;-83
2022/01/21 01:04:30;;;;;;;14.20;1.88;;;0.10;99.90;;;;;;12402249;28;20121;-84
2022/01/21 01:11:21;;;;;;;13.43;2.00;;;0.10;99.90;;;;;;12423269;28;20494;-86
2022/01/21 01:23:26;;;;;;;21.63;2.13;;;0.20;99.90;;;;;;12405065;28;20038;-85
2022/01/21 01:29:28;;;;;;;20.38;2.78;;;0.20;99.90;;;;;;12393204;28;20046;-85
2022/01/21 01:35:33;;;;;;;20.75;2.75;;;0.20;99.90;;;;;;12410452;28;20468;-85
2022/01/21 01:41:40;;;;;;;10.60;2.10;;;0.20;99.90;;;;;;12406545;28;20600;-84
2022/01/21 01:54:12;;;;;;;15.90;2.33;;;0.30;99.90;;;;;;12406247;28;20054;-85
2022/01/21 02:00:14;;;;;;;12.63;2.45;;;0.30;99.90;;;;;;12405806;28;20054;-85
2022/01/21 02:06:16;;;;;;;12.18;2.38;;;0.40;99.90;;;;;;12395187;28;20050;-84
2022/01/21 02:12:18;;;;;;;19.73;2.38;;;0.40;99.90;;;;;;12404246;28;20311;-85
2022/01/21 02:24:50;;;;;;;17.77;2.20;;;0.50;99.90;;;;;;12407583;28;20605;-86
2022/01/21 02:30:58;;;;;;;16.13;2.30;;;0.50;99.90;;;;;;12398448;28;20049;-85
2022/01/21 02:37:00;;;;;;;13.23;1.67;;;0.50;99.90;;;;;;12417387;28;20061;-86
2022/01/21 02:43:02;;;;;;;8.00;2.05;;;0.60;99.90;;;;;;12402486;28;20702;-85
2022/01/21 02:49:04;;;;;;;10.68;1.80;;;0.70;99.90;;;;;;12391819;28;20077;-85
2022/01/21 02:55:08;;;;;;;15.82;2.13;;;0.60;99.90;;;;;;12429016;28;20046;-85
2022/01/21 03:01:11;;;;;;;13.02;1.60;;;0.50;99.90;;;;;;12419205;28;20081;-83
2022/01/21 03:07:13;;;;;;;12.43;1.90;;;0.60;99.90;;;;;;12406356;28;20510;-86
2022/01/21 03:13:15;;;;;;;6.80;1.45;;;0.50;99.90;;;;;;12400835;28;20502;-84
2022/01/21 03:19:17;;;;;;;12.25;1.90;;;0.40;99.90;;;;;;12395386;28;20061;-84
2022/01/21 03:25:19;;;;;;;11.55;1.85;;;0.40;99.90;;;;;;12410512;28;20102;-84
2022/01/21 03:31:21;;;;;;;9.65;1.73;;;0.50;99.90;;;;;;12413620;28;20029;-84
2022/01/21 03:37:23;;;;;;;8.60;1.45;;;0.40;99.90;;;;;;12412012;28;20260;-85
2022/01/21 03:43:25;;;;;;;15.20;2.08;;;0.50;99.90;;;;;;12405569;28;20050;-85
2022/01/21 03:49:35;;;;;;;8.93;1.88;;;0.50;99.90;;;;;;12397267;28;21108;-84
2022/01/21 03:55:38;;;;;;;15.80;2.70;;;0.40;99.90;;;;;;12402883;28;20049;-85
2022/01/21 04:01:40;;;;;;;7.63;2.05;;;0.40;99.90;;;;;;12403885;28;20066;-85
2022/01/21 04:07:42;;;;;;;10.35;2.63;;;0.30;99.90;;;;;;12421383;28;20058;-84
2022/01/21 04:13:45;;;;;;;19.42;3.55;;;0.30;99.90;;;;;;12386673;28;20054;-84
2022/01/21 04:19:47;;;;;;;10.73;2.67;;;0.30;99.90;;;;;;12389931;28;20096;-84
2022/01/21 04:25:50;;;;;;;12.30;3.17;;;0.30;99.90;;;;;;12384115;28;20105;-84
2022/01/21 04:31:52;;;;;;;8.25;2.85;;;0.30;99.90;;;;;;12393103;28;20104;-84
2022/01/21 04:38:01;;;;;;;10.10;2.72;;;0.40;99.90;;;;;;12383121;28;20217;-84
2022/01/21 04:50:26;;;;;;;17.25;3.08;;;0.40;99.90;;;;;;12402551;28;20128;-85
2022/01/21 04:56:27;;;;;;;9.38;2.53;;;0.50;99.90;;;;;;12381688;28;20129;-83
2022/01/21 05:02:31;;;;;;;12.50;2.65;;;0.60;99.90;;;;;;12400007;28;20038;-86
2022/01/21 05:08:48;;;;;;;17.70;2.47;;;0.60;99.90;;;;;;12423247;28;20936;-86
2022/01/21 05:20:52;;;;;;;17.73;2.58;;;0.60;99.90;;;;;;12396831;28;20141;-85
2022/01/21 05:26:56;;;;;;;11.38;2.22;;;0.60;99.90;;;;;;12401418;28;20104;-85
2022/01/21 05:32:58;;;;;;;13.57;2.72;;;0.60;99.90;;;;;;12400697;28;20836;-85
2022/01/21 05:39:00;;;;;;;14.15;2.88;;;0.60;99.90;;;;;;12392164;28;20875;-85
2022/01/21 05:51:06;;;;;;;20.33;3.30;;;0.60;99.90;;;;;;12399644;28;20058;-85
2022/01/21 05:57:11;;;;;;;18.10;4.03;;;0.70;99.90;;;;;;12395924;28;20081;-85
2022/01/21 06:03:13;;;;;;;15.23;4.05;;;0.70;99.90;;;;;;12355637;28;20089;-85
2022/01/21 06:09:15;;;;;;;19.30;4.32;;;0.70;99.90;;;;;;12342347;28;20133;-85
2022/01/21 06:15:22;;;;;;;15.68;4.40;;;0.80;99.90;;;;;;12348744;28;20571;-85
2022/01/21 06:21:24;;;;;;;15.70;4.22;;;0.80;99.90;;;;;;12344243;28;20061;-85
2022/01/21 06:27:27;;;;;;;12.68;3.97;;;0.80;99.90;;;;;;12345312;28;20143;-84
2022/01/21 06:33:29;;;;;;;16.92;4.43;;;0.90;99.90;;;;;;12336072;28;20133;-84
2022/01/21 06:39:31;;;;;;;15.73;4.60;;;0.90;99.90;;;;;;12341036;28;20455;-85
2022/01/21 06:45:33;;;;;;;17.27;5.22;;;0.90;99.90;;;;;;12336193;28;20129;-85
2022/01/21 06:51:35;;;;;;;13.60;5.25;;;0.90;99.90;;;;;;12348975;28;20121;-85
2022/01/21 06:57:39;;;;;;;14.25;4.97;;;1.00;99.90;;;;;;12343709;28;20051;-84
2022/01/21 07:03:41;;;;;;;13.50;5.78;;;1.00;99.90;;;;;;12373520;28;20042;-85
2022/01/21 07:09:43;;;;;;;14.52;6.53;;;1.00;99.90;;;;;;12382214;28;20184;-84
2022/01/21 07:15:45;;;;;;;16.30;6.40;;;1.10;99.90;;;;;;12398166;28;20046;-85
2022/01/21 07:21:47;;;;;;;18.20;6.07;;;1.10;99.90;;;;;;12384892;28;20042;-84
2022/01/21 07:27:49;;;;;;;19.38;6.35;;;1.10;99.90;;;;;;12390272;28;20739;-85
2022/01/21 07:33:51;;;;;;;20.10;5.53;;;1.20;99.90;;;;;;12387558;28;20053;-85
2022/01/21 07:39:53;;;;;;;16.20;5.55;;;1.20;99.90;;;;;;12377525;28;20081;-86
2022/01/21 07:45:55;;;;;;;17.30;5.63;;;1.30;99.90;;;;;;12388468;28;20137;-85
2022/01/21 07:51:57;;;;;;;13.07;5.22;;;1.30;99.90;;;;;;12376419;28;20148;-85
2022/01/21 07:58:00;;;;;;;16.60;4.53;;;1.30;99.90;;;;;;12378829;28;20045;-86
2022/01/21 08:04:03;;;;;;;18.08;5.00;;;1.30;99.90;;;;;;12387427;28;20084;-86
2022/01/21 08:10:05;;;;;;;11.55;4.55;;;1.40;99.90;;;;;;12380008;28;20499;-85
2022/01/21 08:16:07;;;;;;;16.17;5.82;;;1.40;99.90;;;;;;12368887;28;20488;-85
2022/01/21 08:22:09;;;;;;;13.70;5.20;;;1.50;99.90;;;;;;12378914;28;20042;-86
2022/01/21 08:28:11;;;;;;;15.95;4.32;;;1.50;99.90;;;;;;12380713;28;20062;-84
2022/01/21 08:34:15;;;;;;;9.52;4.22;;;1.50;99.90;;;;;;12389222;28;20081;-86
2022/01/21 08:40:16;;;;;;;18.02;5.78;;;1.50;99.90;;;;;;12408009;28;20084;-85
2022/01/21 08:46:20;;;;;;;11.95;5.95;;;1.50;99.90;;;;;;12381834;28;20046;-86
2022/01/21 08:52:26;;;;;;;11.37;6.50;;;1.50;99.90;;;;;;12380847;28;20049;-86
2022/01/21 08:58:28;;;;;;;15.10;6.97;;;1.50;99.90;;;;;;12392627;28;20119;-85
2022/01/21 09:04:30;;;;;;;23.42;7.13;;;1.50;99.90;;;;;;12441620;28;20050;-86
2022/01/21 09:10:32;;;;;;;19.05;7.43;;;1.60;99.90;;;;;;12406101;28;20103;-86
2022/01/21 09:16:34;;;;;;;18.05;6.35;;;1.70;99.90;;;;;;12388376;28;20613;-86
2022/01/21 09:22:36;;;;;;;11.77;5.53;;;1.70;99.90;;;;;;12393809;28;20060;-85
2022/01/21 09:28:38;;;;;;;17.75;5.30;;;1.80;99.90;;;;;;12385027;28;20054;-87
2022/01/21 09:34:40;;;;;;;14.73;4.72;;;2.00;99.90;;;;;;12398527;28;20504;-84
2022/01/21 09:40:47;;;;;;;20.83;5.43;;;2.10;99.90;;;;;;12378606;28;20052;-85
2022/01/21 09:46:52;;;;;;;16.00;4.60;;;2.30;99.90;;;;;;12395749;28;20050;-86
2022/01/21 09:52:54;;;;;;;12.88;3.70;;;2.50;99.90;;;;;;12378987;28;20229;-85
2022/01/21 09:58:59;;;;;;;12.95;4.15;;;2.50;99.90;;;;;;12394328;28;20064;-86
2022/01/21 10:05:02;;;;;;;11.65;3.40;;;2.60;99.90;;;;;;12392725;28;20587;-85
2022/01/21 10:11:04;;;;;;;12.70;2.70;;;2.60;99.90;;;;;;12384875;28;20181;-86
2022/01/21 10:17:07;;;;;;;12.40;2.70;;;2.80;99.90;;;;;;12385033;28;20108;-85
2022/01/21 10:23:09;;;;;;;15.70;3.03;;;2.90;99.90;;;;;;12411179;28;20481;-86
2022/01/21 10:29:11;;;;;;;9.00;2.33;;;3.00;99.90;;;;;;12382264;28;20073;-86
2022/01/21 10:35:33;;;;;;;15.00;2.63;;;3.20;99.90;;;;;;12393482;28;20049;-85
2022/01/21 10:41:39;;;;;;;10.95;2.58;;;3.40;99.90;;;;;;12377394;28;20133;-85
2022/01/21 10:47:48;;;;;;;12.57;2.75;;;3.60;99.90;;;;;;12389215;28;20076;-85
2022/01/21 10:53:50;;;;;;;12.27;2.60;;;3.60;99.90;;;;;;12388381;28;20092;-87
2022/01/21 11:00:09;;;;;;;12.43;2.20;;;3.50;99.90;;;;;;12375308;28;20058;-86
2022/01/21 11:06:14;;;;;;;14.77;2.58;;;3.50;99.90;;;;;;12395402;28;20920;-85
2022/01/21 11:12:17;;;;;;;18.55;2.17;;;3.60;99.90;;;;;;12396505;28;20089;-86
2022/01/21 11:18:20;;;;;;;15.25;2.20;;;3.60;99.90;;;;;;12397028;28;20181;-85
2022/01/21 11:24:25;;;;;;;9.93;2.10;;;3.60;99.90;;;;;;12396335;28;20046;-86
2022/01/21 11:30:27;;;;;;;13.23;1.80;;;3.90;99.90;;;;;;12375035;28;20076;-86
2022/01/21 11:36:29;;;;;;;14.88;1.95;;;4.10;99.90;;;;;;12381669;28;20176;-87
2022/01/21 11:42:35;;;;;;;13.52;1.98;;;4.20;99.90;;;;;;12382661;28;20045;-86
2022/01/21 11:48:50;;;;;;;13.13;2.20;;;4.30;99.90;;;;;;12378408;28;20399;-85
2022/01/21 11:54:52;;;;;;;12.05;1.95;;;4.50;99.90;;;;;;12371098;28;20050;-87
2022/01/21 12:00:54;;;;;;;9.68;1.95;;;4.50;99.90;;;;;;12389354;28;20077;-85
2022/01/21 12:06:57;;;;;;;12.90;1.67;;;4.50;99.90;;;;;;12378124;28;20089;-85
2022/01/21 12:19:19;;;;;;;10.93;2.00;;;4.30;99.90;;;;;;12390438;28;20060;-87
2022/01/21 12:25:20;;;;;;;15.55;2.47;;;4.20;99.90;;;;;;12377059;28;20592;-86
2022/01/21 12:31:53;;;;;;;14.15;1.73;;;4.30;99.90;;;;;;12371989;28;20046;-86
2022/01/21 12:44:31;;;;;;;10.57;1.80;;;4.30;99.90;;;;;;12382471;28;20078;-85
2022/01/21 12:50:41;;;;;;;14.07;2.22;;;4.40;99.90;;;;;;12385910;28;20038;-87
2022/01/21 12:56:47;;;;;;;14.52;1.77;;;4.40;99.90;;;;;;12352171;28;20042;-86
2022/01/21 13:02:50;;;;;;;12.13;2.10;;;4.30;99.90;;;;;;12358664;28;20574;-86
2022/01/21 13:09:06;;;;;;;10.35;2.22;;;4.50;99.90;;;;;;12365798;28;20161;-86
2022/01/21 13:15:08;;;;;;;12.18;2.00;;;4.50;99.90;;;;;;12365976;28;20065;-85
2022/01/21 13:21:10;;;;;;;12.45;2.63;;;4.60;99.90;;;;;;12391273;28;20173;-86
2022/01/21 13:27:12;;;;;;;21.90;3.45;;;4.60;99.90;;;;;;12389879;28;20122;-86
2022/01/21 13:33:15;;;;;;;15.32;3.15;;;4.70;99.90;;;;;;12407080;28;20096;-86
2022/01/21 13:39:20;;;;;;;16.40;3.40;;;4.60;99.90;;;;;;12420959;28;20491;-85
2022/01/21 13:45:22;;;;;;;15.90;2.70;;;4.60;99.90;;;;;;12395471;28;20085;-87
2022/01/21 13:51:23;;;;;;;19.60;2.55;;;4.60;99.90;;;;;;12414101;28;20049;-85
2022/01/21 13:57:27;;;;;;;13.27;2.20;;;4.60;99.90;;;;;;12406353;28;20074;-86
2022/01/21 14:03:32;;;;;;;14.57;2.15;;;4.70;99.90;;;;;;12403979;28;20046;-85
2022/01/21 14:09:37;;;;;;;13.07;2.58;;;4.60;99.90;;;;;;12393042;28;20114;-87
2022/01/21 14:15:39;;;;;;;17.60;3.42;;;4.60;99.90;;;;;;12398100;28;20050;-86
2022/01/21 14:21:43;;;;;;;19.92;2.67;;;4.60;99.90;;;;;;12380686;28;20110;-85
2022/01/21 14:27:50;;;;;;;13.43;2.90;;;4.50;99.90;;;;;;12379948;28;20080;-85
2022/01/21 14:33:52;;;;;;;14.48;3.30;;;4.40;99.90;;;;;;12382668;28;20096;-86
2022/01/21 14:39:54;;;;;;;15.60;3.20;;;4.40;99.90;;;;;;12414105;28;20050;-86
2022/01/21 14:45:58;;;;;;;18.95;2.95;;;4.40;99.90;;;;;;12426058;28;20056;-86
2022/01/21 14:52:33;;;;;;;;;;;4.50;99.90;;;;;;12409359;28;20049;-87
2022/01/21 14:58:26;;;;;;;18.90;3.08;;;4.40;99.90;;;;;;12399035;28;20287;-86
2022/01/21 15:04:28;;;;;;;16.60;3.20;;;4.40;99.90;;;;;;12378621;28;20482;-85
2022/01/21 15:10:41;;;;;;;11.60;2.63;;;4.30;99.90;;;;;;12399087;28;20133;-86
2022/01/21 15:16:46;;;;;;;14.27;2.78;;;4.30;99.90;;;;;;12396356;28;20081;-87
2022/01/21 15:22:48;;;;;;;11.43;2.33;;;4.10;99.90;;;;;;12398293;28;20119;-87
2022/01/21 15:29:00;;;;;;;12.27;2.47;;;4.00;99.90;;;;;;12396784;28;20137;-85
2022/01/21 15:35:03;;;;;;;10.27;2.47;;;4.00;99.90;;;;;;12392560;28;20085;-86
2022/01/21 15:41:05;;;;;;;9.32;2.72;;;3.90;99.90;;;;;;12378227;28;20073;-87
2022/01/21 15:47:07;;;;;;;13.27;3.70;;;3.90;99.90;;;;;;12383290;28;20042;-86
2022/01/21 15:53:10;;;;;;;16.00;3.88;;;3.80;99.90;;;;;;12393520;28;20105;-86
2022/01/21 15:59:13;;;;;;;14.85;4.00;;;3.80;99.90;;;;;;12383768;28;20046;-86
2022/01/21 16:05:16;;;;;;;22.20;5.38;;;3.80;99.90;;;;;;12377383;28;20652;-86
2022/01/21 16:11:17;;;;;;;13.82;6.30;;;3.80;99.90;;;;;;12376161;28;20102;-88
2022/01/21 16:17:19;;;;;;;17.30;7.95;;;3.90;99.90;;;;;;12395036;28;20610;-87
2022/01/21 16:23:21;;;;;;;22.00;9.07;;;3.80;99.90;;;;;;12378168;28;20053;-86
2022/01/21 16:29:26;;;;;;;21.40;8.45;;;3.90;99.90;;;;;;12378621;28;20061;-86
2022/01/21 16:35:30;;;;;;;25.38;8.68;;;3.80;99.90;;;;;;12380903;28;20100;-87
2022/01/21 16:41:32;;;;;;;18.45;8.35;;;3.90;99.90;;;;;;12394778;28;20511;-87
2022/01/21 16:47:35;;;;;;;19.02;9.32;;;3.90;99.90;;;;;;12379738;28;20073;-86
2022/01/21 16:53:36;;;;;;;21.48;10.77;;;3.90;99.90;;;;;;12378417;28;20069;-86
2022/01/21 16:59:38;;;;;;;20.17;11.55;;;4.00;99.90;;;;;;12383435;28;20054;-86
2022/01/21 17:05:40;;;;;;;24.90;11.65;;;4.00;99.90;;;;;;12386335;28;20176;-86
2022/01/21 17:11:42;;;;;;;25.95;12.15;;;4.10;99.90;;;;;;12385472;28;20042;-87
2022/01/21 17:17:45;;;;;;;25.95;12.77;;;4.20;99.90;;;;;;12375237;28;20410;-87
2022/01/21 17:23:52;;;;;;;23.42;12.50;;;4.20;99.90;;;;;;12394037;28;20046;-87
2022/01/21 17:29:54;;;;;;;22.30;13.00;;;4.30;99.90;;;;;;12388179;28;20050;-87
2022/01/21 17:35:56;;;;;;;18.70;11.75;;;4.40;99.90;;;;;;12403739;28;20137;-86
2022/01/21 17:41:59;;;;;;;22.17;11.43;;;4.50;99.90;;;;;;12389615;28;20037;-86
2022/01/21 17:48:00;;;;;;;19.58;11.68;;;4.50;99.90;;;;;;12387360;28;20057;-87
2022/01/21 17:54:03;;;;;;;26.08;11.93;;;4.60;99.90;;;;;;12390748;28;20061;-87
2022/01/21 18:00:12;;;;;;;22.60;11.65;;;4.70;99.90;;;;;;12373089;28;20104;-88
2022/01/21 18:06:15;;;;;;;22.13;11.63;;;4.70;99.90;;;;;;12389679;28;20088;-87
2022/01/21 18:12:17;;;;;;;18.65;11.00;;;4.70;99.90;;;;;;12386192;28;20054;-89
2022/01/21 18:18:25;;;;;;;23.30;12.13;;;4.70;99.90;;;;;;12381488;28;20074;-87
2022/01/21 18:24:27;;;;;;;22.05;10.55;;;4.80;99.90;;;;;;12396893;28;20046;-87
2022/01/21 18:30:30;;;;;;;19.75;11.52;;;4.90;99.90;;;;;;12383472;28;20046;-87
2022/01/21 18:36:44;;;;;;;25.42;11.10;;;4.90;99.90;;;;;;12384348;28;20165;-88
2022/01/21 18:42:48;;;;;;;24.15;9.55;;;4.90;99.90;;;;;;12396828;28;20042;-86
2022/01/21 18:48:50;;;;;;;20.77;9.02;;;4.90;99.90;;;;;;12385347;28;20054;-87
2022/01/21 18:54:52;;;;;;;19.00;7.72;;;4.90;99.90;;;;;;12373170;28;20129;-86
2022/01/21 19:00:54;;;;;;;14.70;7.00;;;4.90;99.90;;;;;;12396744;28;20076;-87
2022/01/21 19:06:56;;;;;;;16.15;7.85;;;5.00;99.90;;;;;;12383064;28;20065;-86
2022/01/21 19:12:58;;;;;;;19.00;6.88;;;5.00;99.90;;;;;;12388743;28;20049;-87
2022/01/21 19:19:00;;;;;;;14.43;7.05;;;5.10;99.90;;;;;;12385641;28;20056;-88
2022/01/21 19:25:10;;;;;;;14.65;8.00;;;5.10;99.90;;;;;;12385098;28;20168;-88
2022/01/21 19:31:12;;;;;;;22.60;7.88;;;5.00;99.90;;;;;;12388004;28;20046;-89
2022/01/21 19:37:35;;;;;;;21.25;7.97;;;5.00;99.90;;;;;;12380314;28;20054;-87
2022/01/21 19:43:37;;;;;;;18.30;7.03;;;5.00;99.90;;;;;;12380622;28;20037;-90
2022/01/21 19:49:39;;;;;;;16.27;7.25;;;5.00;99.90;;;;;;12381548;28;20053;-87
2022/01/21 19:55:45;;;;;;;13.77;7.05;;;5.00;99.90;;;;;;12383634;28;20054;-87
2022/01/21 20:14:37;;;;;;;9.57;5.60;;;5.10;99.90;;;;;;12347545;28;20472;-87
2022/01/21 20:20:44;;;;;;;8.50;5.40;;;5.20;99.90;;;;;;12394453;28;20047;-87
2022/01/21 20:26:48;;;;;;;12.25;5.93;;;5.10;99.90;;;;;;12375409;28;20080;-87
2022/01/21 20:32:50;;;;;;;9.98;4.57;;;5.10;99.90;;;;;;12392187;28;20199;-88
2022/01/21 20:39:01;;;;;;;11.23;5.25;;;5.20;99.90;;;;;;12381261;28;20176;-88
2022/01/21 20:45:03;;;;;;;10.52;5.28;;;5.20;99.90;;;;;;12376052;28;20046;-86
2022/01/21 20:51:09;;;;;;;11.85;5.00;;;5.10;99.90;;;;;;12379741;28;20077;-88
2022/01/21 20:57:12;;;;;;;9.02;4.35;;;5.20;99.90;;;;;;12380816;28;20050;-87
2022/01/21 21:03:14;;;;;;;10.73;4.07;;;5.20;99.90;;;;;;12387409;28;20077;-87
2022/01/21 21:09:24;;;;;;;8.70;4.72;;;5.30;99.90;;;;;;12383484;28;20057;-88
2022/01/21 21:15:31;;;;;;;7.70;4.50;;;5.10;99.90;;;;;;12383549;28;20482;-87
2022/01/21 21:27:42;;;;;;;8.75;4.57;;;5.20;99.90;;;;;;12401115;28;20058;-88
2022/01/21 23:02:14;;;;;;;14.57;8.00;;;5.10;99.90;;;;;;12388802;28;20042;-89
2022/01/21 23:08:25;;;;;;;11.23;7.28;;;5.10;99.90;;;;;;12378594;28;20073;-88
2022/01/21 23:14:29;;;;;;;9.68;7.20;;;5.10;99.90;;;;;;12385017;28;20046;-89
2022/01/21 23:20:32;;;;;;;13.23;7.95;;;5.00;99.90;;;;;;12396858;28;20042;-87
2022/01/21 23:26:36;;;;;;;12.35;6.65;;;5.00;99.90;;;;;;12380335;28;20057;-87
2022/01/21 23:32:42;;;;;;;10.90;6.27;;;5.00;99.90;;;;;;12380028;28;20537;-87
2022/01/21 23:39:06;;;;;;;13.07;6.68;;;5.00;99.90;;;;;;12394520;28;20324;-87
2022/01/21 23:45:09;;;;;;;7.30;5.10;;;5.00;99.90;;;;;;12381050;28;20121;-89
2022/01/21 23:51:11;;;;;;;8.07;5.00;;;5.00;99.90;;;;;;12375835;28;20292;-88
2022/01/21 23:57:13;;;;;;;10.82;5.55;;;4.90;99.90;;;;;;12386767;28;20058;-87
